Time;durP1;ratioP1;P1;durP2;ratioP2;P2;SDS_P1;SDS_P2;PMS_P1;PMS_P2;Temp;Humidity;BMP_temperature;BMP_pressure;BME280_temperature;BME280_humidity;BME280_pressure;Samples;Min_cycle;Max_cycle;Signal;HPM_P1;HPM_P2
2022/09/06 00:00:06;;;;;;;;;7.00;5.00;;;;;23.51;60.18;99372.53;4996861;28;46359;-65
2022/09/06 00:02:33;;;;;;;;;8.00;5.80;;;;;23.49;60.84;99369.97;4996944;28;45229;-67
2022/09/06 00:04:59;;;;;;;;;9.25;8.25;;;;;23.47;60.88;99371.09;4979949;28;45442;-66
2022/09/06 00:07:24;;;;;;;;;7.00;6.00;;;;;23.43;60.88;99373.25;4976971;28;45354;-67
2022/09/06 00:09:49;;;;;;;;;5.75;5.75;;;;;23.42;61.39;99378.75;4977308;28;45535;-67
2022/09/06 00:12:15;;;;;;;;;6.75;6.00;;;;;23.39;60.76;99371.81;4977129;28;45429;-66
2022/09/06 00:14:41;;;;;;;;;9.50;7.00;;;;;23.39;60.50;99377.19;4977119;28;45409;-65
2022/09/06 00:17:06;;;;;;;;;7.25;6.75;;;;;23.39;60.92;99387.09;4977034;28;45414;-65
2022/09/06 00:19:32;;;;;;;;;6.00;6.00;;;;;23.39;59.58;99379.88;4983258;28;46430;-65
2022/09/06 00:21:57;;;;;;;;;6.00;5.75;;;;;23.36;59.34;99376.59;4996383;28;45488;-65
2022/09/06 00:24:22;;;;;;;;;7.25;5.00;;;;;23.35;58.91;99381.13;4996983;28;45871;-64
2022/09/06 00:26:48;;;;;;;;;7.00;6.00;;;;;23.32;58.87;99376.00;4996730;28;45454;-65
2022/09/06 00:29:13;;;;;;;;;6.00;5.00;;;;;23.28;58.58;99371.91;4979040;28;45435;-66
2022/09/06 00:31:39;;;;;;;;;5.25;4.00;;;;;23.26;58.59;99373.88;4976783;28;45373;-66
2022/09/06 00:34:04;;;;;;;;;8.00;5.50;;;;;23.26;59.20;99371.19;4976832;28;45482;-63
2022/09/06 00:36:30;;;;;;;;;5.25;5.25;;;;;23.22;59.10;99378.69;4976253;28;45458;-67
2022/09/06 00:38:55;;;;;;;;;6.50;6.50;;;;;23.19;59.39;99380.78;4993963;28;45497;-67
2022/09/06 00:41:21;;;;;;;;;6.75;5.75;;;;;23.20;59.45;99382.50;4996348;28;45329;-67
2022/09/06 00:43:47;;;;;;;;;4.25;4.25;;;;;23.19;58.82;99370.03;4996221;28;45450;-66
2022/09/06 00:46:16;;;;;;;;;6.00;6.00;;;;;23.22;58.99;99375.13;4996107;28;45497;-66
2022/09/06 00:48:44;;;;;;;;;5.50;4.75;;;;;23.21;59.30;99374.28;4977848;28;45545;-66
2022/09/06 00:51:13;;;;;;;;;6.20;5.00;;;;;23.23;59.26;99379.53;4976741;28;45400;-66
2022/09/06 00:53:40;;;;;;;;;6.60;6.40;;;;;23.25;59.50;99377.56;4976368;28;45317;-66
2022/09/06 00:56:06;;;;;;;;;6.50;4.25;;;;;23.25;59.27;99375.72;4976691;28;45468;-66
2022/09/06 00:58:32;;;;;;;;;5.20;5.20;;;;;23.25;59.54;99373.03;4995836;28;45517;-66
2022/09/06 01:00:58;;;;;;;;;6.80;5.00;;;;;23.25;59.41;99372.19;4982154;28;45540;-68
2022/09/06 01:03:24;;;;;;;;;5.50;5.00;;;;;23.24;59.23;99365.94;4991979;28;45425;-67
2022/09/06 01:06:05;;;;;;;;;6.75;5.75;;;;;23.16;59.01;99362.22;4976590;28;45323;-68
2022/09/06 01:08:36;;;;;;;;;5.50;4.50;;;;;23.06;59.38;99364.88;4975929;28;45699;-68
2022/09/06 01:11:18;;;;;;;;;7.80;5.00;;;;;23.02;59.37;99355.38;4976123;28;45418;-68
2022/09/06 01:13:46;;;;;;;;;4.00;4.00;;;;;22.97;59.60;99358.44;4987318;28;45500;-68
2022/09/06 01:16:42;;;;;;;;;7.25;4.25;;;;;22.91;60.05;99360.84;4995532;28;45294;-67
2022/09/06 01:19:31;;;;;;;;;6.25;5.25;;;;;22.82;59.65;99362.47;4995618;28;46292;-67
2022/09/06 01:22:15;;;;;;;;;5.80;5.60;;;;;22.79;60.26;99370.81;4995317;28;45461;-67
2022/09/06 01:25:12;;;;;;;;;9.50;5.75;;;;;22.71;60.05;99375.97;4995350;28;45495;-67
2022/09/06 01:28:05;;;;;;;;;6.25;4.00;;;;;22.59;60.56;99368.97;4982393;28;45392;-67
2022/09/06 01:30:35;;;;;;;;;6.50;5.25;;;;;22.56;60.82;99375.44;4995246;28;45457;-67
2022/09/06 01:33:15;;;;;;;;;9.80;5.80;;;;;22.57;60.86;99376.31;4995719;28;45320;-67
2022/09/06 01:35:57;;;;;;;;;7.60;4.00;;;;;22.58;61.11;99381.56;4995643;28;45495;-67
2022/09/06 01:38:22;;;;;;;;;5.25;5.25;;;;;22.57;60.51;99381.69;4995234;28;45342;-67
2022/09/06 01:40:48;;;;;;;;;5.50;3.25;;;;;22.57;59.89;99376.31;4995515;28;45673;-66
2022/09/06 01:43:22;;;;;;;;;7.75;4.50;;;;;22.58;60.58;99386.94;4995461;28;45290;-66
2022/09/06 01:46:10;;;;;;;;;5.20;5.00;;;;;22.60;60.60;99374.22;4995789;28;45505;-66
2022/09/06 01:48:56;;;;;;;;;8.25;5.00;;;;;22.64;59.68;99375.63;4978401;28;45426;-66
2022/09/06 01:51:30;;;;;;;;;5.20;4.40;;;;;22.67;59.94;99384.41;4975607;28;45361;-67
2022/09/06 01:54:33;;;;;;;;;4.00;4.00;;;;;22.69;60.07;99374.41;4982653;28;45411;-66
2022/09/06 01:57:31;;;;;;;;;5.75;4.00;;;;;22.67;60.05;99381.72;4994754;28;45528;-68
2022/09/06 02:00:09;;;;;;;;;8.00;5.00;;;;;22.59;59.79;99371.66;4967482;28;45640;-68
2022/09/06 02:02:52;;;;;;;;;5.50;5.00;;;;;22.54;60.45;99369.34;4987948;28;46945;-68
2022/09/06 02:05:24;;;;;;;;;6.00;4.60;;;;;22.54;60.13;99377.41;4975520;28;45444;-67
2022/09/06 02:07:54;;;;;;;;;3.80;3.80;;;;;22.56;60.41;99372.75;4975278;28;45386;-69
2022/09/06 02:10:30;;;;;;;;;4.00;4.00;;;;;22.56;60.06;99372.75;4975764;28;45253;-69
2022/09/06 02:12:59;;;;;;;;;7.00;4.00;;;;;22.58;60.13;99369.94;4992814;28;46374;-69
2022/09/06 02:15:27;;;;;;;;;7.00;6.00;;;;;22.53;59.79;99370.34;4985823;28;45494;-68
2022/09/06 02:18:01;;;;;;;;;4.40;4.40;;;;;22.44;59.92;99367.59;4994087;28;45448;-68
2022/09/06 02:20:30;;;;;;;;;4.00;3.50;;;;;22.38;60.34;99377.00;4995123;28;45346;-68
2022/09/06 02:23:02;;;;;;;;;5.20;5.20;;;;;22.36;59.98;99380.81;4994737;28;46096;-68
2022/09/06 02:25:44;;;;;;;;;4.00;3.00;;;;;22.34;60.11;99378.25;4994856;28;45419;-68
2022/09/06 02:28:09;;;;;;;;;5.00;5.00;;;;;22.33;60.64;99381.91;4995001;28;45439;-68
2022/09/06 02:30:40;;;;;;;;;5.00;5.00;;;;;22.33;60.43;99381.06;4978755;28;45440;-68
2022/09/06 02:33:13;;;;;;;;;10.50;9.75;;;;;22.34;60.93;99382.75;4985597;28;45565;-68
2022/09/06 02:35:44;;;;;;;;;7.80;6.20;;;;;22.33;60.80;99387.28;4990074;28;45438;-68
2022/09/06 02:38:10;;;;;;;;;4.50;3.25;;;;;22.32;61.32;99390.94;4974818;28;45495;-68
2022/09/06 02:40:36;;;;;;;;;8.25;5.00;;;;;22.33;60.80;99389.97;4980321;28;45350;-67
2022/09/06 02:43:01;;;;;;;;;6.00;4.50;;;;;22.35;60.76;99377.28;4994852;28;46405;-67
2022/09/06 02:45:26;;;;;;;;;6.75;5.25;;;;;22.36;60.55;99386.19;4994540;28;45447;-66
2022/09/06 02:47:52;;;;;;;;;8.25;8.25;;;;;22.37;60.63;99385.19;4993544;28;45548;-67
2022/09/06 02:50:17;;;;;;;;;6.00;4.25;;;;;22.37;60.83;99386.06;4994388;28;45579;-67
2022/09/06 02:52:42;;;;;;;;;7.00;5.00;;;;;22.38;60.42;99374.31;4994257;28;46419;-66
2022/09/06 02:55:08;;;;;;;;;5.25;4.00;;;;;22.41;60.99;99382.13;4976817;28;45431;-66
2022/09/06 02:57:34;;;;;;;;;5.25;5.00;;;;;22.42;60.42;99374.94;4975008;28;45393;-66
2022/09/06 02:59:59;;;;;;;;;5.00;5.00;;;;;22.46;60.29;99379.88;4974636;28;45450;-66
2022/09/06 03:02:25;;;;;;;;;5.00;5.00;;;;;22.46;60.64;99379.88;4974985;28;45501;-67
2022/09/06 03:04:50;;;;;;;;;6.00;4.50;;;;;22.48;59.86;99377.94;4990424;28;45247;-67
2022/09/06 03:07:15;;;;;;;;;5.50;5.50;;;;;22.51;60.31;99379.50;4994984;28;45343;-65
2022/09/06 03:09:41;;;;;;;;;8.00;6.25;;;;;22.54;60.19;99376.56;4997709;28;45415;-66
2022/09/06 03:12:06;;;;;;;;;4.00;4.00;;;;;22.56;60.02;99375.44;4997835;28;46535;-67
2022/09/06 03:14:34;;;;;;;;;7.00;6.75;;;;;22.59;60.02;99366.28;4997478;28;45479;-66
2022/09/06 03:17:00;;;;;;;;;6.00;6.00;;;;;22.61;59.85;99373.22;4997901;28;45845;-67
2022/09/06 03:19:26;;;;;;;;;10.50;4.00;;;;;22.63;59.66;99371.25;4997448;28;45502;-67
2022/09/06 03:21:51;;;;;;;;;5.00;4.75;;;;;22.65;59.76;99371.09;4997180;28;45455;-67
2022/09/06 03:24:16;;;;;;;;;7.75;6.50;;;;;22.68;59.96;99372.69;4997505;28;45411;-67
2022/09/06 03:26:43;;;;;;;;;3.75;3.75;;;;;22.70;60.15;99376.09;4997869;28;45453;-68
2022/09/06 03:29:08;;;;;;;;;6.50;5.00;;;;;22.71;59.62;99378.66;4997413;28;45394;-68
2022/09/06 03:31:33;;;;;;;;;6.50;5.00;;;;;22.72;59.67;99379.50;4997637;28;46207;-68
2022/09/06 03:33:59;;;;;;;;;5.50;4.50;;;;;22.74;59.67;99377.53;4997510;28;45339;-68
2022/09/06 03:36:24;;;;;;;;;6.50;6.00;;;;;22.76;59.72;99380.97;4997302;28;45414;-68
2022/09/06 03:38:52;;;;;;;;;8.00;5.50;;;;;22.76;59.32;99383.66;4997107;28;45471;-68
2022/09/06 03:41:18;;;;;;;;;8.00;5.40;;;;;22.74;59.37;99386.47;4997346;28;46626;-68
2022/09/06 03:43:43;;;;;;;;;9.00;6.50;;;;;22.75;59.70;99390.00;4997192;28;45586;-67
2022/09/06 03:46:08;;;;;;;;;6.00;6.00;;;;;22.75;59.34;99384.63;4997331;28;45861;-68
2022/09/06 03:48:34;;;;;;;;;6.00;5.00;;;;;22.75;59.63;99390.84;4983991;28;45339;-67
2022/09/06 03:50:59;;;;;;;;;8.75;8.75;;;;;22.76;59.74;99387.19;4986725;28;45469;-68
2022/09/06 03:53:26;;;;;;;;;7.00;7.00;;;;;22.77;59.75;99386.25;4980876;28;45374;-67
2022/09/06 03:55:54;;;;;;;;;8.50;7.25;;;;;22.80;59.58;99396.69;4996986;28;45556;-68
2022/09/06 03:58:21;;;;;;;;;7.25;5.00;;;;;22.82;60.03;99388.50;4979469;28;45365;-68
2022/09/06 04:00:47;;;;;;;;;6.50;6.50;;;;;22.82;59.45;99389.34;4977153;28;45345;-68
2022/09/06 04:03:12;;;;;;;;;8.00;5.00;;;;;22.86;59.89;99392.66;4979471;28;45498;-68
2022/09/06 04:05:38;;;;;;;;;7.75;6.75;;;;;22.84;59.52;99386.53;4997359;28;45364;-68
2022/09/06 04:08:04;;;;;;;;;9.25;7.50;;;;;22.81;59.52;99384.13;4996177;28;45465;-68
2022/09/06 04:10:30;;;;;;;;;7.00;6.50;;;;;22.75;59.15;99385.47;4996185;28;45695;-68
2022/09/06 04:12:55;;;;;;;;;9.00;7.00;;;;;22.69;59.47;99383.31;4996765;28;45513;-68
2022/09/06 04:15:21;;;;;;;;;7.75;7.00;;;;;22.62;59.75;99379.47;4997025;28;45747;-65
2022/09/06 04:17:46;;;;;;;;;7.75;6.25;;;;;22.59;59.88;99377.88;4996656;28;45507;-68
2022/09/06 04:20:13;;;;;;;;;5.25;5.00;;;;;22.56;59.70;99378.13;4996004;28;46334;-69
2022/09/06 04:22:38;;;;;;;;;11.20;7.00;;;;;22.54;60.05;99371.19;4996070;28;45431;-65
2022/09/06 04:25:05;;;;;;;;;6.75;6.25;;;;;22.55;59.40;99375.59;4996267;28;45425;-67
2022/09/06 04:27:30;;;;;;;;;4.50;4.50;;;;;22.52;59.94;99360.56;4996294;28;45522;-67
2022/09/06 04:29:56;;;;;;;;;3.00;3.00;;;;;22.49;59.53;99363.50;4996565;28;46567;-67
2022/09/06 04:32:22;;;;;;;;;5.25;5.00;;;;;22.47;59.46;99362.78;4996192;28;45456;-66
2022/09/06 04:34:47;;;;;;;;;6.50;5.50;;;;;22.44;59.68;99359.53;4996543;28;45378;-67
2022/09/06 04:37:16;;;;;;;;;7.25;6.25;;;;;22.41;60.18;99351.72;4995420;28;45345;-67
2022/09/06 04:39:42;;;;;;;;;8.25;6.00;;;;;22.39;60.44;99361.75;4996082;28;46569;-67
2022/09/06 04:42:08;;;;;;;;;8.60;5.00;;;;;22.35;60.79;99366.53;4995932;28;45455;-67
2022/09/06 04:44:33;;;;;;;;;12.25;10.50;;;;;22.35;60.72;99362.97;4996268;28;45436;-67
2022/09/06 04:47:11;;;;;;;;;8.00;7.00;;;;;22.32;60.98;99360.56;4991505;28;45347;-67
2022/09/06 04:49:37;;;;;;;;;8.75;7.00;;;;;22.30;60.89;99371.41;4976313;28;46275;-67
2022/09/06 04:52:02;;;;;;;;;6.75;6.25;;;;;22.29;60.74;99364.34;4976155;28;45441;-67
2022/09/06 04:54:28;;;;;;;;;7.50;7.00;;;;;22.27;60.94;99369.88;4976147;28;45552;-66
2022/09/06 04:56:53;;;;;;;;;8.25;6.00;;;;;22.26;61.15;99364.63;4975803;28;45442;-66
2022/09/06 04:59:19;;;;;;;;;5.75;5.50;;;;;22.23;61.49;99362.19;4976215;28;45414;-66
2022/09/06 05:01:44;;;;;;;;;6.50;6.50;;;;;22.19;61.45;99363.44;4976098;28;45246;-65
2022/09/06 05:04:09;;;;;;;;;6.25;6.25;;;;;22.16;61.69;99363.69;4987167;28;45663;-66
2022/09/06 05:06:35;;;;;;;;;8.00;7.25;;;;;22.10;61.77;99358.84;4994868;28;45431;-66
2022/09/06 05:09:00;;;;;;;;;6.25;6.00;;;;;22.07;61.70;99361.78;4995844;28;46606;-66
2022/09/06 05:11:26;;;;;;;;;12.25;5.75;;;;;22.04;62.33;99357.50;4994979;28;45427;-66
2022/09/06 05:13:51;;;;;;;;;8.75;7.00;;;;;22.06;61.87;99366.28;4995735;28;45509;-67
2022/09/06 05:16:17;;;;;;;;;6.50;6.50;;;;;22.06;61.68;99371.66;4995149;28;45507;-65
2022/09/06 05:18:43;;;;;;;;;6.25;5.00;;;;;22.05;61.97;99369.09;4995861;28;46260;-65
2022/09/06 05:21:09;;;;;;;;;7.25;7.00;;;;;22.03;61.79;99377.28;4995011;28;45606;-65
2022/09/06 05:23:34;;;;;;;;;8.50;7.50;;;;;22.03;62.20;99382.66;4994319;28;45374;-65
2022/09/06 05:26:00;;;;;;;;;9.00;8.00;;;;;22.03;62.13;99373.75;4994943;28;45488;-65
2022/09/06 05:28:25;;;;;;;;;8.75;8.75;;;;;22.03;62.30;99381.81;4994705;28;45447;-64
2022/09/06 05:30:51;;;;;;;;;9.00;7.00;;;;;22.05;62.49;99380.69;4994674;28;45386;-66
2022/09/06 05:33:21;;;;;;;;;10.00;7.50;;;;;22.09;62.59;99394.72;4994451;28;45449;-74
2022/09/06 05:35:47;;;;;;;;;6.00;6.00;;;;;22.11;62.66;99390.09;4994115;28;45412;-73
2022/09/06 05:38:13;;;;;;;;;6.25;6.25;;;;;22.15;62.23;99395.06;4986609;28;45551;-74
2022/09/06 05:40:38;;;;;;;;;10.25;8.00;;;;;22.18;62.52;99393.94;4985134;28;45417;-74
2022/09/06 05:43:04;;;;;;;;;7.75;7.50;;;;;22.21;62.65;99391.88;4990095;28;45403;-74
2022/09/06 05:45:29;;;;;;;;;13.50;8.50;;;;;22.24;62.59;99401.50;4993687;28;45439;-75
2022/09/06 05:47:54;;;;;;;;;9.00;7.00;;;;;22.29;62.52;99405.50;4992325;28;45656;-71
2022/09/06 05:50:20;;;;;;;;;9.00;8.25;;;;;22.32;62.20;99400.84;4994153;28;45453;-71
2022/09/06 05:52:46;;;;;;;;;10.00;7.50;;;;;22.34;62.46;99405.09;4993853;28;45818;-72
2022/09/06 05:55:11;;;;;;;;;9.25;8.75;;;;;22.33;62.45;99398.03;4993449;28;45539;-72
2022/09/06 05:57:37;;;;;;;;;8.00;7.00;;;;;22.33;62.02;99398.03;4992087;28;45560;-68
2022/09/06 06:00:03;;;;;;;;;8.00;7.25;;;;;22.34;61.84;99394.38;4994020;28;45458;-71
2022/09/06 06:02:29;;;;;;;;;11.00;7.25;;;;;22.33;62.11;99394.50;4990961;28;45392;-70
2022/09/06 06:04:54;;;;;;;;;7.00;7.00;;;;;22.32;62.59;99401.69;4983134;28;45513;-69
2022/09/06 06:07:19;;;;;;;;;9.25;7.50;;;;;22.35;62.52;99397.91;4980167;28;46485;-69
2022/09/06 06:09:45;;;;;;;;;9.50;6.25;;;;;22.39;62.16;99402.91;4993144;28;45448;-71
2022/09/06 06:12:11;;;;;;;;;8.00;8.00;;;;;22.43;62.44;99401.66;4993665;28;45461;-70
2022/09/06 06:14:36;;;;;;;;;8.50;6.00;;;;;22.48;62.34;99399.41;4994162;28;45418;-69
2022/09/06 06:17:02;;;;;;;;;9.00;9.00;;;;;22.53;62.07;99407.09;4983150;28;45412;-71
2022/09/06 06:19:28;;;;;;;;;11.50;8.75;;;;;22.53;61.82;99407.09;4985661;28;45416;-69
2022/09/06 06:21:55;;;;;;;;;8.75;7.50;;;;;22.55;61.83;99403.31;4993279;28;45397;-69
2022/09/06 06:24:20;;;;;;;;;7.00;6.25;;;;;22.55;61.80;99405.13;4985286;28;45389;-70
2022/09/06 06:26:46;;;;;;;;;12.75;10.25;;;;;22.55;61.90;99400.63;4977970;28;46110;-62
2022/09/06 06:29:13;;;;;;;;;9.50;9.50;;;;;22.58;62.22;99403.06;4975118;28;45549;-65
2022/09/06 06:31:39;;;;;;;;;8.80;8.40;;;;;22.62;61.73;99409.03;4983127;28;45537;-69
2022/09/06 06:34:04;;;;;;;;;12.25;8.25;;;;;22.65;62.15;99411.44;5010830;28;45401;-67
2022/09/06 06:36:33;;;;;;;;;8.00;6.75;;;;;22.72;61.81;99412.63;4981311;28;46046;-66
2022/09/06 06:39:00;;;;;;;;;10.00;7.00;;;;;22.80;61.80;99415.53;4972880;28;45572;-66
2022/09/06 06:41:29;;;;;;;;;8.60;7.80;;;;;22.84;61.30;99414.28;4973544;28;45177;-68
2022/09/06 06:43:56;;;;;;;;;15.25;9.50;;;;;22.86;61.13;99411.47;4977058;28;45623;-67
2022/09/06 06:46:27;;;;;;;;;6.75;6.75;;;;;22.85;61.49;99417.81;4989152;28;45480;-66
2022/09/06 06:48:56;;;;;;;;;10.00;7.40;;;;;22.86;61.49;99417.69;4995785;28;45626;-67
2022/09/06 06:51:27;;;;;;;;;13.25;10.50;;;;;22.87;61.50;99414.03;4996704;28;45492;-68
2022/09/06 06:53:52;;;;;;;;;8.75;8.75;;;;;22.85;61.49;99405.22;4989337;28;45445;-69
2022/09/06 06:56:19;;;;;;;;;7.75;7.75;;;;;22.85;61.18;99407.91;4981916;28;46085;-65
2022/09/06 06:58:47;;;;;;;;;8.20;8.00;;;;;22.88;61.52;99404.97;4994559;28;45541;-69
2022/09/06 07:01:13;;;;;;;;;9.40;6.60;;;;;22.93;60.56;99393.81;4996208;28;45365;-65
2022/09/06 07:03:39;;;;;;;;;8.25;8.00;;;;;22.92;60.59;99387.59;4994337;28;45437;-66
2022/09/06 07:06:06;;;;;;;;;9.25;8.75;;;;;22.92;60.63;99390.28;4994623;28;47727;-66
2022/09/06 07:08:32;;;;;;;;;7.20;6.40;;;;;22.95;60.64;99386.50;4996783;28;45354;-65
2022/09/06 07:10:58;;;;;;;;;10.75;8.00;;;;;22.99;60.79;99382.53;4997703;28;45259;-64
2022/09/06 07:13:23;;;;;;;;;11.50;7.50;;;;;23.03;60.96;99381.28;4996010;28;45477;-65
2022/09/06 07:15:49;;;;;;;;;13.50;8.00;;;;;23.08;60.56;99375.50;4996410;28;46432;-64
2022/09/06 07:18:15;;;;;;;;;20.75;19.50;;;;;23.14;60.27;99381.19;4996875;28;45425;-67
2022/09/06 07:20:41;;;;;;;;;12.50;10.00;;;;;23.19;60.20;99378.94;4996509;28;45440;-68
2022/09/06 07:23:07;;;;;;;;;11.00;9.00;;;;;23.24;60.44;99370.47;4996458;28;45358;-68
2022/09/06 07:25:33;;;;;;;;;9.75;8.25;;;;;23.26;60.12;99363.97;5011402;28;46777;-67
2022/09/06 07:28:06;;;;;;;;;9.00;6.75;;;;;23.30;59.79;99361.84;4995384;28;45427;-67
2022/09/06 07:30:38;;;;;;;;;10.00;9.00;;;;;23.32;59.55;99357.19;4996649;28;45400;-67
2022/09/06 07:33:06;;;;;;;;;10.00;9.00;;;;;23.34;59.46;99363.28;4991919;28;45275;-67
2022/09/06 07:35:32;;;;;;;;;9.60;7.60;;;;;23.38;59.44;99371.94;5024262;28;46339;-65
2022/09/06 07:38:00;;;;;;;;;10.60;7.80;;;;;23.42;59.14;99371.53;4996253;28;45505;-65
2022/09/06 07:40:27;;;;;;;;;25.00;23.00;;;;;23.45;59.07;99370.41;4996384;28;45387;-67
2022/09/06 07:42:56;;;;;;;;;9.50;8.50;;;;;23.51;58.95;99361.78;4995155;28;45244;-68
2022/09/06 07:45:22;;;;;;;;;8.50;7.50;;;;;23.55;58.88;99364.09;4996226;28;45364;-69
2022/09/06 07:47:58;;;;;;;;;6.25;6.25;;;;;23.61;58.83;99360.88;4996048;28;45421;-64
2022/09/06 07:50:25;;;;;;;;;6.00;6.00;;;;;23.65;58.61;99361.41;4993180;28;45339;-65
2022/09/06 07:52:50;;;;;;;;;11.75;11.00;;;;;23.68;58.48;99363.84;4994515;28;45568;-64
2022/09/06 07:55:16;;;;;;;;;14.25;9.00;;;;;23.71;58.24;99358.19;4993096;28;45897;-65
2022/09/06 07:57:41;;;;;;;;;10.00;8.50;;;;;23.76;57.92;99347.84;4995724;28;45363;-66
2022/09/06 08:00:09;;;;;;;;;8.25;8.25;;;;;23.81;57.82;99358.19;4993686;28;45462;-66
2022/09/06 08:02:34;;;;;;;;;11.25;9.50;;;;;23.86;58.37;99351.41;4987661;28;45391;-59
2022/09/06 08:04:59;;;;;;;;;147.75;134.25;;;;;23.95;58.41;99353.28;4993543;28;46315;-67
2022/09/06 08:07:25;;;;;;;;;12.00;10.25;;;;;24.03;58.12;99360.63;4992706;28;45714;-71
2022/09/06 08:09:53;;;;;;;;;12.75;9.00;;;;;24.09;57.88;99362.78;4990304;28;45370;-70
2022/09/06 08:12:18;;;;;;;;;9.75;6.25;;;;;24.13;57.87;99360.66;4986965;28;45555;-70
2022/09/06 08:14:44;;;;;;;;;7.75;6.50;;;;;24.19;57.32;99360.06;4994581;28;47193;-67
2022/09/06 08:17:09;;;;;;;;;8.25;7.25;;;;;24.25;57.39;99351.47;4993775;28;45476;-67
2022/09/06 08:19:35;;;;;;;;;7.00;7.00;;;;;24.32;56.96;99361.50;4994661;28;45485;-68
2022/09/06 08:22:01;;;;;;;;;6.80;6.20;;;;;24.39;56.44;99356.41;4995500;28;45322;-66
2022/09/06 08:24:26;;;;;;;;;7.75;6.75;;;;;24.44;56.34;99362.22;4995004;28;45478;-66
2022/09/06 08:26:52;;;;;;;;;11.75;9.50;;;;;24.53;55.76;99366.75;4994274;28;45565;-66
2022/09/06 08:29:18;;;;;;;;;13.00;8.00;;;;;24.58;55.50;99369.00;4994090;28;45529;-66
2022/09/06 08:31:44;;;;;;;;;7.50;5.50;;;;;24.61;55.41;99361.50;4993053;28;45568;-66
2022/09/06 08:34:13;;;;;;;;;6.80;6.20;;;;;24.66;55.19;99361.03;4994229;28;46328;-65
2022/09/06 08:36:41;;;;;;;;;7.80;6.40;;;;;24.71;55.22;99364.16;4993609;28;45500;-66
2022/09/06 08:39:08;;;;;;;;;9.20;7.80;;;;;24.77;55.49;99360.03;4974115;28;45339;-66
2022/09/06 08:42:09;;;;;;;;;14.75;9.50;;;;;24.81;55.28;99359.59;4976193;28;45281;-66
2022/09/06 08:44:42;;;;;;;;;8.40;8.40;;;;;24.87;55.43;99356.31;4944159;28;46177;-66
2022/09/06 08:47:12;;;;;;;;;9.80;8.60;;;;;24.92;54.33;99351.34;4993939;28;45421;-66
2022/09/06 08:49:53;;;;;;;;;9.80;8.80;;;;;24.98;54.11;99349.91;4995912;28;45377;-67
2022/09/06 08:52:39;;;;;;;;;16.50;12.75;;;;;25.03;54.48;99340.38;4992926;28;45511;-66
2022/09/06 08:55:22;;;;;;;;;12.40;9.60;;;;;25.10;53.82;99340.66;4995587;28;45747;-66
2022/09/06 08:58:09;;;;;;;;;12.00;9.20;;;;;25.16;53.80;99341.88;4995708;28;45502;-66
2022/09/06 09:00:37;;;;;;;;;15.50;13.25;;;;;25.22;53.79;99342.16;4995679;28;45384;-66
2022/09/06 09:03:29;;;;;;;;;13.75;9.00;;;;;25.28;53.54;99340.72;5009943;28;45555;-66
2022/09/06 09:05:54;;;;;;;;;9.20;7.60;;;;;25.34;53.04;99326.59;4990422;28;47107;-66
2022/09/06 09:09:02;;;;;;;;;8.25;7.75;;;;;25.44;52.66;99326.56;4973974;28;45351;-66
2022/09/06 09:11:32;;;;;;;;;15.50;15.00;;;;;25.52;52.73;99329.34;4968524;28;45449;-66
2022/09/06 09:14:34;;;;;;;;;7.75;6.75;;;;;25.58;52.73;99329.59;4974533;28;45446;-66
2022/09/06 09:17:04;;;;;;;;;9.40;7.20;;;;;25.65;52.83;99328.00;4975139;28;45416;-67
2022/09/06 09:19:32;;;;;;;;;9.60;7.20;;;;;25.67;52.88;99335.97;4975306;28;45497;-66
2022/09/06 09:21:58;;;;;;;;;8.00;7.75;;;;;25.67;52.73;99326.00;4975355;28;45362;-66
2022/09/06 09:24:23;;;;;;;;;10.00;10.00;;;;;25.70;53.10;99330.28;4975377;28;45232;-66
2022/09/06 09:27:05;;;;;;;;;15.00;9.00;;;;;25.72;52.71;99334.50;4974154;28;47457;-66
2022/09/06 09:29:31;;;;;;;;;10.60;8.20;;;;;25.73;53.04;99319.16;4975586;28;45374;-66
2022/09/06 09:31:56;;;;;;;;;7.75;6.00;;;;;25.74;52.59;99334.38;4975433;28;45514;-67
2022/09/06 09:34:40;;;;;;;;;10.00;6.00;;;;;25.66;52.43;99321.63;4982416;28;45387;-66
2022/09/06 09:37:28;;;;;;;;;7.00;7.00;;;;;25.57;52.41;99310.84;4989834;28;45406;-66
2022/09/06 09:39:56;;;;;;;;;9.00;8.00;;;;;25.51;53.10;99314.16;4994709;28;45433;-66
2022/09/06 09:42:34;;;;;;;;;7.00;6.40;;;;;25.46;52.79;99300.28;4994536;28;45370;-66
2022/09/06 09:45:01;;;;;;;;;12.00;8.75;;;;;25.42;52.80;99304.28;4992913;28;45543;-66
2022/09/06 09:47:32;;;;;;;;;10.40;9.60;;;;;25.40;53.25;99293.63;4987275;28;45424;-66
2022/09/06 09:49:58;;;;;;;;;8.00;8.00;;;;;25.40;53.27;99290.94;4974543;28;45406;-66
2022/09/06 09:52:45;;;;;;;;;8.60;7.40;;;;;25.39;53.06;99289.22;4973540;28;45437;-66
2022/09/06 09:55:10;;;;;;;;;10.00;8.75;;;;;25.41;52.26;99281.81;4979505;28;45536;-66
2022/09/06 09:57:47;;;;;;;;;7.75;7.75;;;;;25.42;52.42;99282.69;4994501;28;45672;-67
2022/09/06 10:00:13;;;;;;;;;9.40;7.40;;;;;25.46;52.48;99284.09;4988248;28;45420;-66
2022/09/06 10:02:40;;;;;;;;;8.80;6.60;;;;;25.51;51.75;99279.06;4975134;28;45462;-66
2022/09/06 10:05:12;;;;;;;;;10.00;7.00;;;;;25.59;51.37;99271.06;4992384;28;45450;-66
2022/09/06 10:07:52;;;;;;;;;10.40;9.40;;;;;25.65;50.81;99259.66;4994124;28;45543;-67
2022/09/06 10:10:24;;;;;;;;;10.40;8.60;;;;;25.72;51.05;99264.28;4994588;28;45291;-66
2022/09/06 10:13:05;;;;;;;;;10.40;9.80;;;;;25.78;50.41;99257.44;4989097;28;45457;-67
2022/09/06 10:15:33;;;;;;;;;8.75;7.00;;;;;25.86;50.44;99252.09;4993287;28;45412;-66
2022/09/06 10:17:58;;;;;;;;;7.00;7.00;;;;;25.95;49.83;99248.47;4979335;28;46357;-66
2022/09/06 10:20:39;;;;;;;;;9.25;8.25;;;;;26.04;49.35;99246.69;4992631;28;45387;-65
2022/09/06 10:23:21;;;;;;;;;37.33;33.00;;;;;26.11;49.36;99231.53;4974109;28;45494;-68
2022/09/06 10:26:25;;;;;;;;;10.75;7.50;;;;;26.22;49.59;99223.16;4989818;28;45432;-64
2022/09/06 10:29:02;;;;;;;;;9.00;8.00;;;;;26.32;49.37;99218.53;4981427;28;46539;-64
2022/09/06 10:31:34;;;;;;;;;9.40;8.80;;;;;26.42;49.26;99215.72;4993748;28;45325;-69
2022/09/06 10:34:22;;;;;;;;;8.25;7.00;;;;;26.51;49.63;99206.66;4993401;28;45433;-68
2022/09/06 10:37:32;;;;;;;;;9.00;8.25;;;;;26.60;48.87;99200.28;4992943;28;45428;-65
2022/09/06 10:40:26;;;;;;;;;7.80;7.00;;;;;26.67;49.06;99192.34;4932553;28;45611;-65
2022/09/06 10:42:54;;;;;;;;;8.20;7.20;;;;;26.74;49.18;99196.97;4974417;28;45370;-66
2022/09/06 10:45:28;;;;;;;;;10.40;8.60;;;;;26.82;48.32;99185.31;4977734;28;45390;-66
2022/09/06 10:48:03;;;;;;;;;3.80;3.80;;;;;26.81;48.21;99180.09;4984779;28;45547;-65
2022/09/06 10:51:19;;;;;;;;;7.80;6.00;;;;;26.82;48.52;99163.69;4987072;28;46513;-65
2022/09/06 10:53:50;;;;;;;;;9.80;9.20;;;;;26.89;48.38;99158.47;4946133;28;45402;-64
2022/09/06 10:56:31;;;;;;;;;8.40;8.00;;;;;26.97;48.17;99151.28;4971068;28;45752;-65
2022/09/06 10:59:19;;;;;;;;;8.75;8.50;;;;;27.07;48.30;99149.25;4988391;28;45488;-64
2022/09/06 11:01:54;;;;;;;;;8.80;6.80;;;;;27.18;48.43;99148.06;4991651;28;46179;-64
2022/09/06 11:04:28;;;;;;;;;8.80;7.20;;;;;27.26;48.02;99142.69;4991190;28;45466;-65
2022/09/06 11:06:59;;;;;;;;;8.20;7.00;;;;;27.33;48.30;99140.16;4986019;28;45449;-65
2022/09/06 11:09:33;;;;;;;;;6.25;6.00;;;;;27.42;48.53;99129.16;4986647;28;45489;-74
2022/09/06 11:12:32;;;;;;;;;6.40;6.40;;;;;27.54;48.71;99118.00;4992547;28;45572;-70
2022/09/06 11:15:01;;;;;;;;;19.80;18.20;;;;;27.64;48.79;99114.16;4992699;28;45513;-65
2022/09/06 11:17:39;;;;;;;;;6.80;5.80;;;;;27.73;48.59;99102.28;4991954;28;45468;-67
2022/09/06 11:20:13;;;;;;;;;6.50;6.00;;;;;27.81;48.64;99103.28;5007582;28;45605;-67
2022/09/06 11:23:03;;;;;;;;;6.80;6.00;;;;;27.82;48.35;99086.03;4992481;28;46534;-65
2022/09/06 11:25:47;;;;;;;;;5.20;5.00;;;;;27.86;48.27;99087.34;4992031;28;45419;-65
2022/09/06 11:28:18;;;;;;;;;4.40;4.20;;;;;27.90;47.82;99086.00;4993542;28;45396;-64
2022/09/06 11:30:51;;;;;;;;;7.75;4.25;;;;;27.96;47.56;99080.72;4990984;28;45421;-66
2022/09/06 11:33:25;;;;;;;;;4.20;3.60;;;;;28.04;46.75;99075.28;4977334;28;46816;-71
2022/09/06 11:35:52;;;;;;;;;3.60;3.60;;;;;28.10;47.19;99071.03;4976745;28;45437;-67
2022/09/06 11:38:26;;;;;;;;;6.40;4.00;;;;;28.13;46.81;99067.97;4958215;28;45461;-65
2022/09/06 11:41:00;;;;;;;;;6.00;5.00;;;;;28.19;46.09;99063.69;4976219;28;45503;-64
2022/09/06 11:43:43;;;;;;;;;3.80;3.00;;;;;28.24;46.81;99055.94;4991411;28;45516;-65
2022/09/06 11:46:31;;;;;;;;;12.80;4.00;;;;;28.26;46.85;99065.59;4995191;28;45947;-65